createdAt,value
2018-12-30T00:02:23.559Z,21.90
2018-12-30T00:04:54.275Z,20.40
2018-12-30T00:07:24.949Z,21.97
2018-12-30T00:09:55.329Z,21.20
2018-12-30T00:12:25.629Z,20.73
2018-12-30T00:14:56.017Z,21.00
2018-12-30T00:17:26.653Z,20.27
2018-12-30T00:19:57.485Z,20.17
2018-12-30T00:22:27.768Z,21.27
2018-12-30T00:24:58.109Z,20.20
2018-12-30T00:27:28.447Z,19.83
2018-12-30T00:29:58.832Z,19.37
2018-12-30T00:32:29.363Z,19.40
2018-12-30T00:34:59.610Z,19.87
2018-12-30T00:37:29.999Z,20.80
2018-12-30T00:40:00.262Z,20.20
2018-12-30T00:42:30.512Z,20.57
2018-12-30T00:45:01.002Z,22.53
2018-12-30T00:47:31.308Z,20.43
2018-12-30T00:50:01.516Z,21.13
2018-12-30T00:52:31.804Z,21.50
2018-12-30T00:55:02.135Z,20.40
2018-12-30T00:57:32.591Z,22.00
2018-12-30T01:00:03.249Z,20.03
2018-12-30T01:02:33.956Z,19.73
2018-12-30T01:05:04.913Z,18.90
2018-12-30T01:07:36.127Z,19.70
2018-12-30T01:10:07.658Z,19.97
2018-12-30T01:12:38.009Z,20.27
2018-12-30T01:15:08.330Z,19.07
2018-12-30T01:17:38.632Z,20.57
2018-12-30T01:20:08.905Z,19.53
2018-12-30T01:22:39.274Z,19.53
2018-12-30T01:25:09.550Z,20.83
2018-12-30T01:27:39.879Z,20.57
2018-12-30T01:30:10.100Z,21.57
2018-12-30T01:32:40.399Z,22.63
2018-12-30T01:35:10.662Z,22.97
2018-12-30T01:37:40.971Z,22.20
2018-12-30T01:40:11.213Z,21.97
2018-12-30T01:42:41.518Z,22.13
2018-12-30T01:45:12.172Z,22.07
2018-12-30T01:47:42.475Z,21.93
2018-12-30T01:50:12.801Z,22.83
2018-12-30T01:52:43.160Z,22.87
2018-12-30T01:55:13.484Z,22.00
2018-12-30T01:57:44.922Z,22.03
2018-12-30T02:00:15.235Z,22.23
2018-12-30T02:02:45.535Z,22.97
2018-12-30T02:05:15.955Z,23.17
2018-12-30T02:07:46.245Z,23.70
2018-12-30T02:10:16.497Z,22.63
2018-12-30T02:12:46.823Z,21.80
2018-12-30T02:15:17.218Z,22.43
2018-12-30T02:17:47.491Z,23.20
2018-12-30T02:20:18.193Z,23.07
2018-12-30T02:22:48.502Z,22.70
2018-12-30T02:25:18.855Z,22.90
2018-12-30T02:27:49.192Z,23.93
2018-12-30T02:30:19.442Z,23.40
2018-12-30T02:32:49.739Z,23.20
2018-12-30T02:35:19.968Z,22.87
2018-12-30T02:37:50.310Z,23.90
2018-12-30T02:40:25.864Z,23.53
2018-12-30T02:42:57.367Z,23.73
2018-12-30T02:45:27.703Z,23.43
2018-12-30T02:47:58.008Z,24.03
2018-12-30T02:50:28.262Z,24.33
2018-12-30T02:52:59.025Z,23.43
2018-12-30T02:55:29.317Z,22.67
2018-12-30T02:57:59.574Z,22.93
2018-12-30T03:00:31.624Z,24.43
2018-12-30T03:03:01.901Z,23.17
2018-12-30T03:05:32.213Z,22.73
2018-12-30T03:08:03.796Z,21.87
2018-12-30T03:10:34.346Z,23.27
2018-12-30T03:13:04.879Z,22.93
2018-12-30T03:15:35.208Z,21.70
2018-12-30T03:18:05.529Z,20.93
2018-12-30T03:20:36.062Z,23.07
2018-12-30T03:23:06.398Z,22.20
2018-12-30T03:25:36.937Z,23.77
2018-12-30T03:28:07.262Z,22.50
2018-12-30T03:30:37.528Z,23.23
2018-12-30T03:33:07.806Z,23.60
2018-12-30T03:35:38.059Z,24.67
2018-12-30T03:38:08.395Z,24.77
2018-12-30T03:40:38.628Z,25.80
2018-12-30T03:43:08.919Z,26.70
2018-12-30T03:45:39.215Z,25.83
2018-12-30T03:48:09.481Z,25.80
2018-12-30T03:50:39.786Z,25.33
2018-12-30T03:53:10.086Z,26.80
2018-12-30T03:55:40.338Z,27.23
2018-12-30T03:58:10.674Z,29.00
2018-12-30T04:00:40.954Z,26.73
2018-12-30T04:03:11.314Z,29.17
2018-12-30T04:05:41.551Z,28.03
2018-12-30T04:08:11.842Z,28.40
2018-12-30T04:10:42.137Z,28.37
2018-12-30T04:13:12.393Z,28.27
2018-12-30T04:15:42.800Z,28.77
2018-12-30T04:18:13.170Z,29.53
2018-12-30T04:20:43.569Z,30.90
2018-12-30T04:23:13.847Z,28.63
2018-12-30T04:25:44.101Z,30.23
2018-12-30T04:28:14.451Z,29.17
2018-12-30T04:30:44.627Z,30.70
2018-12-30T04:33:14.961Z,30.40
2018-12-30T04:35:45.243Z,29.13
2018-12-30T04:38:15.651Z,29.93
2018-12-30T04:40:45.946Z,30.27
2018-12-30T04:43:17.462Z,28.30
2018-12-30T04:45:47.770Z,30.43
2018-12-30T04:48:18.047Z,28.63
2018-12-30T04:50:48.271Z,29.67
2018-12-30T04:53:18.551Z,29.03
2018-12-30T04:55:48.824Z,30.17
2018-12-30T04:58:19.194Z,28.43
2018-12-30T05:00:49.489Z,29.57
2018-12-30T05:03:19.860Z,29.10
2018-12-30T05:05:51.343Z,28.33
2018-12-30T05:08:21.653Z,27.53
2018-12-30T05:10:51.941Z,28.57
2018-12-30T05:13:22.191Z,28.10
2018-12-30T05:15:52.530Z,27.37
2018-12-30T05:18:22.793Z,28.07
2018-12-30T05:20:53.111Z,27.77
2018-12-30T05:23:23.362Z,26.27
2018-12-30T05:25:53.663Z,28.60
2018-12-30T05:28:23.913Z,27.67
2018-12-30T05:30:54.236Z,27.20
2018-12-30T05:33:24.544Z,27.03
2018-12-30T05:35:54.859Z,27.13
2018-12-30T05:38:25.323Z,27.23
2018-12-30T05:40:55.546Z,26.83
2018-12-30T05:43:25.781Z,27.90
2018-12-30T05:45:56.090Z,27.00
2018-12-30T05:48:26.370Z,27.23
2018-12-30T05:50:56.672Z,27.37
2018-12-30T05:53:26.950Z,27.83
2018-12-30T05:55:57.249Z,28.23
2018-12-30T05:58:27.502Z,27.73
2018-12-30T06:00:57.799Z,27.13
2018-12-30T06:03:28.092Z,28.00
2018-12-30T06:05:58.389Z,28.60
2018-12-30T06:08:28.721Z,29.00
2018-12-30T06:10:58.932Z,28.30
2018-12-30T06:13:29.245Z,27.67
2018-12-30T06:15:59.485Z,27.63
2018-12-30T06:18:29.750Z,28.87
2018-12-30T06:21:00.061Z,27.40
2018-12-30T06:23:30.361Z,28.37
2018-12-30T06:26:00.659Z,29.17
2018-12-30T06:28:30.961Z,28.17
2018-12-30T06:31:01.241Z,29.17
2018-12-30T06:33:31.556Z,28.27
2018-12-30T06:36:01.863Z,29.03
2018-12-30T06:38:32.168Z,30.23
2018-12-30T06:41:02.787Z,29.67
2018-12-30T06:43:33.082Z,29.57
2018-12-30T06:46:03.413Z,28.87
2018-12-30T06:48:33.785Z,28.33
2018-12-30T06:51:04.127Z,29.70
2018-12-30T06:53:34.403Z,25.87
2018-12-30T06:56:04.714Z,29.37
2018-12-30T06:58:35.021Z,29.23
2018-12-30T07:01:05.346Z,29.53
2018-12-30T07:03:35.627Z,29.47
2018-12-30T07:06:05.944Z,28.87
2018-12-30T07:08:36.249Z,28.60
2018-12-30T07:11:06.598Z,28.80
2018-12-30T07:13:37.039Z,27.13
2018-12-30T07:16:07.379Z,29.00
2018-12-30T07:18:37.629Z,28.83
2018-12-30T07:21:07.955Z,28.77
2018-12-30T07:23:38.227Z,28.17
2018-12-30T07:26:08.675Z,27.80
2018-12-30T07:28:38.987Z,28.63
2018-12-30T07:31:09.271Z,28.23
2018-12-30T07:33:39.627Z,26.63
2018-12-30T07:36:09.897Z,27.57
2018-12-30T07:38:40.195Z,27.17
2018-12-30T07:41:10.533Z,28.23
2018-12-30T07:43:40.820Z,26.33
2018-12-30T07:46:11.068Z,26.03
2018-12-30T07:48:41.368Z,24.87
2018-12-30T07:51:11.679Z,25.50
2018-12-30T07:53:41.955Z,25.43
2018-12-30T07:56:12.255Z,26.40
2018-12-30T07:58:42.417Z,26.40
2018-12-30T08:01:12.743Z,26.33
2018-12-30T08:03:42.970Z,24.70
2018-12-30T08:06:13.261Z,25.40
2018-12-30T08:08:43.507Z,26.33
2018-12-30T08:11:13.910Z,25.40
2018-12-30T08:13:44.240Z,25.30
2018-12-30T08:16:14.578Z,25.60
2018-12-30T08:18:44.929Z,25.37
2018-12-30T08:21:15.211Z,25.20
2018-12-30T08:23:45.527Z,23.87
2018-12-30T08:26:15.871Z,23.10
2018-12-30T08:28:46.359Z,23.77
2018-12-30T08:31:16.644Z,24.30
2018-12-30T08:33:46.913Z,24.40
2018-12-30T08:36:17.198Z,23.23
2018-12-30T08:38:47.491Z,24.13
2018-12-30T08:41:17.809Z,23.00
2018-12-30T08:43:48.132Z,23.53
2018-12-30T08:46:18.431Z,23.97
2018-12-30T08:48:49.743Z,23.40
2018-12-30T08:51:20.378Z,23.80
2018-12-30T08:53:50.629Z,25.27
2018-12-30T08:56:20.986Z,26.00
2018-12-30T08:58:51.275Z,25.60
2018-12-30T09:01:28.223Z,25.60
2018-12-30T09:03:53.366Z,25.60
2018-12-30T09:06:23.658Z,24.73
2018-12-30T09:08:53.985Z,24.37
2018-12-30T09:11:24.342Z,23.33
2018-12-30T09:13:54.655Z,22.80
2018-12-30T09:16:24.926Z,23.60
2018-12-30T09:18:55.269Z,22.27
2018-12-30T09:21:25.611Z,20.53
2018-12-30T09:23:55.937Z,19.83
2018-12-30T09:26:26.221Z,20.17
2018-12-30T09:28:56.643Z,21.43
2018-12-30T09:31:26.912Z,20.87
2018-12-30T09:33:57.267Z,19.67
2018-12-30T09:36:27.617Z,20.17
2018-12-30T09:38:57.867Z,19.10
2018-12-30T09:41:28.109Z,19.13
2018-12-30T09:43:58.418Z,17.80
2018-12-30T09:46:28.816Z,19.53
2018-12-30T09:48:59.113Z,18.33
2018-12-30T09:51:29.497Z,19.50
2018-12-30T09:53:59.889Z,18.33
2018-12-30T09:56:30.193Z,19.97
2018-12-30T09:59:00.501Z,19.70
2018-12-30T10:01:30.735Z,20.07
2018-12-30T10:04:01.148Z,19.87
2018-12-30T10:06:31.747Z,20.97
2018-12-30T10:09:01.994Z,21.50
2018-12-30T10:11:33.382Z,20.70
2018-12-30T10:14:03.722Z,20.20
2018-12-30T10:16:34.180Z,20.83
2018-12-30T10:19:05.430Z,21.60
2018-12-30T10:21:35.797Z,22.70
2018-12-30T10:24:06.493Z,22.10
2018-12-30T10:26:36.859Z,21.83
2018-12-30T10:29:07.259Z,25.50
2018-12-30T10:31:37.521Z,21.07
2018-12-30T10:34:08.294Z,20.20
2018-12-30T10:36:38.572Z,21.17
2018-12-30T10:39:08.940Z,21.20
2018-12-30T10:41:39.254Z,20.13
2018-12-30T10:44:09.599Z,20.03
2018-12-30T10:46:39.992Z,20.07
2018-12-30T10:49:10.635Z,18.53
2018-12-30T10:51:41.494Z,18.73
2018-12-30T10:54:11.762Z,20.23
2018-12-30T10:56:43.402Z,19.77
2018-12-30T10:59:13.841Z,19.57
2018-12-30T11:01:44.487Z,19.87
2018-12-30T11:04:14.769Z,19.03
2018-12-30T11:06:45.121Z,19.83
2018-12-30T11:09:15.452Z,20.00
2018-12-30T11:11:45.909Z,21.17
2018-12-30T11:14:16.365Z,20.63
2018-12-30T11:16:47.245Z,20.63
2018-12-30T11:19:17.624Z,20.40
2018-12-30T11:21:47.990Z,21.80
2018-12-30T11:24:18.462Z,21.90
2018-12-30T11:26:48.790Z,20.30
2018-12-30T11:29:19.155Z,20.10
2018-12-30T11:31:49.451Z,22.50
2018-12-30T11:34:19.885Z,22.73
2018-12-30T11:36:50.241Z,21.43
2018-12-30T11:39:20.590Z,22.03
2018-12-30T11:41:50.817Z,22.20
2018-12-30T11:44:21.118Z,22.57
2018-12-30T11:46:51.550Z,23.30
2018-12-30T11:49:21.951Z,21.47
2018-12-30T11:51:52.236Z,21.27
2018-12-30T11:54:22.715Z,20.60
2018-12-30T11:56:53.172Z,21.70
2018-12-30T11:59:23.445Z,20.83
2018-12-30T12:01:53.701Z,19.87
2018-12-30T12:04:24.120Z,19.60
2018-12-30T12:06:54.390Z,19.57
2018-12-30T12:09:24.770Z,19.10
2018-12-30T12:11:55.038Z,19.50
2018-12-30T12:14:25.431Z,18.30
2018-12-30T12:16:56.503Z,18.47
2018-12-30T12:19:27.249Z,19.27
2018-12-30T12:21:57.492Z,19.57
2018-12-30T12:24:27.802Z,17.83
2018-12-30T12:26:58.149Z,17.83
2018-12-30T12:29:28.512Z,17.07
2018-12-30T12:31:58.829Z,14.87
2018-12-30T12:34:29.196Z,13.17
2018-12-30T12:36:59.879Z,14.20
2018-12-30T12:39:30.535Z,13.17
2018-12-30T12:42:00.882Z,12.70
2018-12-30T12:44:31.172Z,12.83
2018-12-30T12:47:01.458Z,13.83
2018-12-30T12:49:31.771Z,13.00
2018-12-30T12:52:02.482Z,12.70
2018-12-30T12:54:32.809Z,12.70
2018-12-30T12:57:03.147Z,13.30
2018-12-30T12:59:33.571Z,13.00
2018-12-30T13:02:05.392Z,13.30
2018-12-30T13:04:35.645Z,13.47
2018-12-30T13:07:05.982Z,13.37
2018-12-30T13:09:36.268Z,12.87
2018-12-30T13:12:06.737Z,12.63
2018-12-30T13:14:37.189Z,11.37
2018-12-30T13:17:07.591Z,11.03
2018-12-30T13:19:37.990Z,11.07
2018-12-30T13:22:08.515Z,10.73
2018-12-30T13:24:40.040Z,9.37
2018-12-30T13:27:10.625Z,9.20
2018-12-30T13:29:41.001Z,9.33
2018-12-30T13:32:11.381Z,10.73
2018-12-30T13:34:41.811Z,10.23
2018-12-30T13:37:12.126Z,10.27
2018-12-30T13:39:42.627Z,9.50
2018-12-30T13:42:12.986Z,9.97
2018-12-30T13:44:43.429Z,10.10
2018-12-30T13:47:13.757Z,9.50
2018-12-30T13:49:44.097Z,10.43
2018-12-30T13:52:14.439Z,10.43
2018-12-30T13:54:47.855Z,10.40
2018-12-30T13:57:16.724Z,10.33
2018-12-30T13:59:47.215Z,10.63
2018-12-30T14:02:17.570Z,11.07
2018-12-30T14:04:47.910Z,10.20
2018-12-30T14:07:18.250Z,10.00
2018-12-30T14:09:48.435Z,10.73
2018-12-30T14:12:18.808Z,10.30
2018-12-30T14:14:49.227Z,10.00
2018-12-30T14:17:20.802Z,10.23
2018-12-30T14:19:51.181Z,10.20
2018-12-30T14:22:21.453Z,9.83
2018-12-30T14:24:55.315Z,10.47
2018-12-30T14:27:23.776Z,9.83
2018-12-30T14:29:54.155Z,9.87
2018-12-30T14:32:24.826Z,9.50
2018-12-30T14:34:55.348Z,10.07
2018-12-30T14:37:25.595Z,9.40
2018-12-30T14:39:55.996Z,9.23
2018-12-30T14:42:26.239Z,17.13
2018-12-30T14:44:56.719Z,10.63
2018-12-30T14:47:26.971Z,10.53
2018-12-30T14:49:57.324Z,11.23
2018-12-30T14:52:27.592Z,10.60
2018-12-30T14:55:03.584Z,11.13
2018-12-30T14:57:29.930Z,11.53
2018-12-30T15:00:00.182Z,11.73
2018-12-30T15:02:30.479Z,15.60
2018-12-30T15:05:00.791Z,12.73
2018-12-30T15:07:31.147Z,13.60
2018-12-30T15:10:01.469Z,12.20
2018-12-30T15:12:32.026Z,13.07
2018-12-30T15:15:02.377Z,14.00
2018-12-30T15:17:32.673Z,13.30
2018-12-30T15:20:03.074Z,12.83
2018-12-30T15:22:33.414Z,13.33
2018-12-30T15:25:11.368Z,13.67
2018-12-30T15:27:35.622Z,13.27
2018-12-30T15:30:07.594Z,12.40
2018-12-30T15:32:37.876Z,14.20
2018-12-30T15:35:08.613Z,14.03
2018-12-30T15:37:38.868Z,14.87
2018-12-30T15:40:09.777Z,14.53
2018-12-30T15:42:40.036Z,15.10
2018-12-30T15:45:10.793Z,15.37
2018-12-30T15:47:41.109Z,15.43
2018-12-30T15:50:11.407Z,15.90
2018-12-30T15:52:41.707Z,16.20
2018-12-30T15:55:19.235Z,16.60
2018-12-30T15:57:45.503Z,15.33
2018-12-30T16:00:15.762Z,16.40
2018-12-30T16:02:46.100Z,16.27
2018-12-30T16:05:16.547Z,16.23
2018-12-30T16:07:47.168Z,17.03
2018-12-30T16:10:17.543Z,16.70
2018-12-30T16:12:47.869Z,16.80
2018-12-30T16:15:18.128Z,16.40
2018-12-30T16:17:48.459Z,17.17
2018-12-30T16:20:18.725Z,18.37
2018-12-30T16:22:48.918Z,18.30
2018-12-30T16:25:26.973Z,18.07
2018-12-30T16:27:51.343Z,17.23
2018-12-30T16:30:21.662Z,18.70
2018-12-30T16:32:51.935Z,18.43
2018-12-30T16:35:22.225Z,18.70
2018-12-30T16:37:52.819Z,19.20
2018-12-30T16:40:23.199Z,17.90
2018-12-30T16:42:53.488Z,17.33
2018-12-30T16:45:24.211Z,19.33
2018-12-30T16:47:55.407Z,17.97
2018-12-30T16:50:25.647Z,18.27
2018-12-30T16:52:57.795Z,19.57
2018-12-30T16:55:34.814Z,19.43
2018-12-30T16:58:01.227Z,19.70
2018-12-30T17:00:31.553Z,19.57
2018-12-30T17:03:02.731Z,19.43
2018-12-30T17:05:33.009Z,19.53
2018-12-30T17:08:03.390Z,19.17
2018-12-30T17:10:33.681Z,19.33
2018-12-30T17:13:03.982Z,18.83
2018-12-30T17:15:34.314Z,19.53
2018-12-30T17:18:04.655Z,19.40
2018-12-30T17:20:34.886Z,19.03
2018-12-30T17:23:05.258Z,23.10
2018-12-30T17:25:42.830Z,25.43
2018-12-30T17:28:07.575Z,29.87
2018-12-30T17:30:37.876Z,21.43
2018-12-30T17:33:08.315Z,22.00
2018-12-30T17:35:38.597Z,22.23
2018-12-30T17:38:10.088Z,22.20
2018-12-30T17:40:40.398Z,22.20
2018-12-30T17:43:10.975Z,21.67
2018-12-30T17:45:41.259Z,20.93
2018-12-30T17:48:11.525Z,22.63
2018-12-30T17:50:41.943Z,22.33
2018-12-30T17:53:12.298Z,22.10
2018-12-30T17:55:42.554Z,22.67
2018-12-30T17:58:12.888Z,22.37
2018-12-30T18:00:43.269Z,22.50
2018-12-30T18:03:13.563Z,22.97
2018-12-30T18:05:43.947Z,24.13
2018-12-30T18:08:14.214Z,24.87
2018-12-30T18:10:44.487Z,22.93
2018-12-30T18:13:15.110Z,24.63
2018-12-30T18:15:45.592Z,22.43
2018-12-30T18:18:15.938Z,24.07
2018-12-30T18:20:46.347Z,25.33
2018-12-30T18:23:16.623Z,25.33
2018-12-30T18:25:58.618Z,23.43
2018-12-30T18:28:24.763Z,26.13
2018-12-30T18:30:55.121Z,23.60
2018-12-30T18:33:25.407Z,22.90
2018-12-30T18:35:55.774Z,23.40
2018-12-30T18:38:26.094Z,20.97
2018-12-30T18:40:56.371Z,20.77
2018-12-30T18:43:26.691Z,20.47
2018-12-30T18:45:57.042Z,19.80
2018-12-30T18:48:27.487Z,19.27
2018-12-30T18:50:58.263Z,21.20
2018-12-30T18:53:29.193Z,21.23
2018-12-30T18:56:06.530Z,20.07
2018-12-30T18:58:31.493Z,21.60
2018-12-30T19:01:02.034Z,20.93
2018-12-30T19:03:32.352Z,20.17
2018-12-30T19:06:02.694Z,18.77
2018-12-30T19:08:33.021Z,16.40
2018-12-30T19:11:03.407Z,17.30
2018-12-30T19:13:33.619Z,14.33
2018-12-30T19:16:03.957Z,15.27
2018-12-30T19:18:34.246Z,14.43
2018-12-30T19:21:04.528Z,12.13
2018-12-30T19:23:35.022Z,12.90
2018-12-30T19:26:05.494Z,12.90
2018-12-30T19:28:35.743Z,13.17
2018-12-30T19:31:06.143Z,12.27
2018-12-30T19:33:36.463Z,10.70
2018-12-30T19:36:06.814Z,11.03
2018-12-30T19:38:37.144Z,11.53
2018-12-30T19:41:07.494Z,11.30
2018-12-30T19:43:37.902Z,11.30
2018-12-30T19:46:08.290Z,10.33
2018-12-30T19:48:38.706Z,11.17
2018-12-30T19:51:09.002Z,11.90
2018-12-30T19:53:39.362Z,9.73
2018-12-30T19:56:09.553Z,10.07
2018-12-30T19:58:39.946Z,10.47
2018-12-30T20:01:10.266Z,9.07
2018-12-30T20:03:40.540Z,9.47
2018-12-30T20:06:10.908Z,9.50
2018-12-30T20:08:41.510Z,9.93
2018-12-30T20:11:11.883Z,9.70
2018-12-30T20:13:42.230Z,8.03
2018-12-30T20:16:12.597Z,9.40
2018-12-30T20:18:42.868Z,9.80
2018-12-30T20:21:13.181Z,8.87
2018-12-30T20:23:43.667Z,10.07
2018-12-30T20:26:13.889Z,9.20
2018-12-30T20:28:44.182Z,9.07
2018-12-30T20:31:14.536Z,7.67
2018-12-30T20:33:44.813Z,8.53
2018-12-30T20:36:15.159Z,8.40
2018-12-30T20:38:45.400Z,8.10
2018-12-30T20:41:15.743Z,7.17
2018-12-30T20:43:45.930Z,7.83
2018-12-30T20:46:16.310Z,8.50
2018-12-30T20:48:46.615Z,7.60
2018-12-30T20:51:16.922Z,8.40
2018-12-30T20:53:48.365Z,8.03
2018-12-30T20:56:19.882Z,8.47
2018-12-30T20:58:50.287Z,8.40
2018-12-30T21:01:20.635Z,7.97
2018-12-30T21:03:52.109Z,9.03
2018-12-30T21:06:22.555Z,9.80
2018-12-30T21:08:52.731Z,9.90
2018-12-30T21:11:23.077Z,9.80
2018-12-30T21:13:53.497Z,9.73
2018-12-30T21:16:23.791Z,9.00
2018-12-30T21:18:54.171Z,9.43
2018-12-30T21:21:24.463Z,10.27
2018-12-30T21:23:54.852Z,9.53
2018-12-30T21:26:25.109Z,8.67
2018-12-30T21:28:55.317Z,8.83
2018-12-30T21:31:25.576Z,8.50
2018-12-30T21:33:55.894Z,7.57
2018-12-30T21:36:26.175Z,8.63
2018-12-30T21:38:56.418Z,9.00
2018-12-30T21:41:26.851Z,9.07
2018-12-30T21:43:58.224Z,7.70
2018-12-30T21:46:28.842Z,8.43
2018-12-30T21:48:59.390Z,9.07
2018-12-30T21:51:29.675Z,9.13
2018-12-30T21:54:00.182Z,7.77
2018-12-30T21:56:30.507Z,9.97
2018-12-30T21:59:00.987Z,9.33
2018-12-30T22:01:31.283Z,9.60
2018-12-30T22:04:01.927Z,9.23
2018-12-30T22:06:32.174Z,8.77
2018-12-30T22:09:02.454Z,8.23
2018-12-30T22:11:34.520Z,8.53
2018-12-30T22:14:04.866Z,7.90
2018-12-30T22:16:35.151Z,8.33
2018-12-30T22:19:05.400Z,7.67
2018-12-30T22:21:35.709Z,7.73
2018-12-30T22:24:05.945Z,7.50
2018-12-30T22:26:36.235Z,8.07
2018-12-30T22:29:06.529Z,8.27
2018-12-30T22:31:36.849Z,7.80
2018-12-30T22:34:07.292Z,7.43
2018-12-30T22:36:37.662Z,7.23
2018-12-30T22:39:08.452Z,8.10
2018-12-30T22:41:38.992Z,7.73
2018-12-30T22:44:09.266Z,8.20
2018-12-30T22:46:39.563Z,7.93
2018-12-30T22:49:09.900Z,7.07
2018-12-30T22:51:40.182Z,6.97
2018-12-30T22:54:10.490Z,7.30
2018-12-30T22:56:40.746Z,7.03
2018-12-30T22:59:11.027Z,7.40
2018-12-30T23:01:43.593Z,6.97
2018-12-30T23:04:15.239Z,6.77
2018-12-30T23:06:45.587Z,6.87
2018-12-30T23:09:15.953Z,6.30
2018-12-30T23:11:46.372Z,7.17
2018-12-30T23:14:16.622Z,6.00
2018-12-30T23:16:47.128Z,6.40
2018-12-30T23:19:17.374Z,5.97
2018-12-30T23:21:47.848Z,6.37
2018-12-30T23:24:18.056Z,6.33
2018-12-30T23:26:48.442Z,6.13
2018-12-30T23:29:18.817Z,5.93
2018-12-30T23:31:49.165Z,5.73
2018-12-30T23:34:19.526Z,6.23
2018-12-30T23:36:49.936Z,6.43
2018-12-30T23:39:20.190Z,6.87
2018-12-30T23:41:50.456Z,6.40
2018-12-30T23:44:20.736Z,6.77
2018-12-30T23:46:51.124Z,5.70
2018-12-30T23:49:21.495Z,6.30
2018-12-30T23:51:51.755Z,5.70
2018-12-30T23:54:22.038Z,5.70
2018-12-30T23:56:52.328Z,6.23
2018-12-30T23:59:22.673Z,6.03
